Aérodrome :
LOGIN :

S'inscrire | Disclaimer

   EN    FR    IT 

 










Légende :    VFR   VFR Marginal   IFR   IFR Intensif   IFR Très Intensif
Visi : 
Plafond : 
>= 8 km
>= 3000ft
5 à 8 km
1000 à 3000 ft
1500m à 5 km
500 à 1000 ft
800 à 1500m
200 à 500 ft
< 800m
< 200 ft
Symboles :   Orages  Brouillard  Fortes neiges  Fortes précipitations  Vent > 20 kt
SIGMETs :   Divers  Orages  Givrage  Turbulence  Onde Orograph.  Cendres Volcan.







- Altitude de l'aérodrome : 158 ft
- Code IATA : QAR


EHDL - Deelen Airbase

DERNIER METAR :
  • 121755Z AUTO 21007KT 170V230 3500 R20/P3000N BR BKN003 OVC004 01/01 Q1011 YLO

METARs EXPIRÉS :
  • 121725Z AUTO 22008KT 180V250 4200 BR OVC003 01/00 Q1011 YLO
  • 121655Z AUTO 22008KT 150V250 5000 BR BKN004 OVC005 01/01 Q1010 YLO
  • 121625Z AUTO 22007KT 190V250 8000 BR BKN006 OVC007 01/00 Q1010 YLO
  • 121555Z AUTO 23007KT 190V250 9999 -DZ SCT006 BKN007 OVC009 01/01 Q1010 YLO
  • 121525Z AUTO 23008KT 190V270 9999 FEW007 SCT008 BKN010 01/01 Q1010 GRN
  • 121455Z AUTO 23008KT 190V280 9999 BKN007 OVC009 02/00 Q1009 GRN

TAF TAF EHDL
Valide du 12 à 14h jusqu'au 13 à 02h UTC


121335Z 1214/1302 23008KT 9999 SCT018 SCT050
TEMPO 1214/1218 24008G18KT 4000 SHRASN SCT008 SCT015CB BKN020
TEMPO 1214/1221 4000 BR FEW003 BKN004 BKN008
BECMG 1222/1301 20012KT
Pas de NOTAMs connus pour ce terrain.



MET'MAP, la Météo Aéronautique d'un coup d'oeil ! - Copyright ORBIFLY Décembre 2007 - Disclaimer

ORBIFLY MET'MAP TEAM :

Programmation & Développement : Alexandra Zaïnal
Conception & Développement : Baudouin d'Aumeries
Co-Programmation & Développement : Marc-Olivier Méhu
Soutien technique & logistique : Manuel Goepfert

Contact : metmap@orbifly.com




SOURCES & CREDITS :

   NOAA